Time;durP1;ratioP1;P1;durP2;ratioP2;P2;SDS_P1;SDS_P2;PMS_P1;PMS_P2;Temp;Humidity;BMP_temperature;BMP_pressure;BME280_temperature;BME280_humidity;BME280_pressure;Samples;Min_cycle;Max_cycle;Signal;HPM_P1;HPM_P2
2022/05/05 00:00:58;;;;;;;4.32;3.90;;;14.80;99.90;;;;;;7391291;19;20166;-80
2022/05/05 00:03:24;;;;;;;4.53;3.88;;;14.70;99.90;;;;;;7391897;19;20134;-78
2022/05/05 00:05:50;;;;;;;5.18;4.07;;;14.50;99.90;;;;;;7390845;19;20130;-80
2022/05/05 00:08:15;;;;;;;5.22;3.97;;;14.50;99.90;;;;;;7391220;19;20164;-81
2022/05/05 00:16:10;;;;;;;5.97;4.40;;;14.90;99.90;;;;;;7397221;19;20142;-80
2022/05/05 00:18:36;;;;;;;6.35;4.30;;;15.00;99.90;;;;;;7395924;19;20150;-80
2022/05/05 00:21:01;;;;;;;6.90;5.25;;;15.20;99.90;;;;;;7392159;19;20127;-79
2022/05/05 00:23:27;;;;;;;5.95;5.05;;;15.10;99.90;;;;;;7393181;19;20130;-82
2022/05/05 00:25:53;;;;;;;6.97;5.30;;;15.00;99.90;;;;;;7390190;19;20150;-82
2022/05/05 00:28:19;;;;;;;5.57;4.95;;;15.00;99.90;;;;;;7389414;19;20638;-79
2022/05/05 00:30:45;;;;;;;5.27;4.43;;;15.00;99.90;;;;;;7393280;19;20127;-82
2022/05/05 00:33:10;;;;;;;5.85;4.80;;;15.00;99.90;;;;;;7391298;19;20186;-79
2022/05/05 00:35:36;;;;;;;5.78;4.72;;;14.90;99.90;;;;;;7394837;19;20139;-80
2022/05/05 00:38:03;;;;;;;5.40;4.82;;;14.90;99.90;;;;;;7396442;19;20483;-80
2022/05/05 00:40:30;;;;;;;7.15;4.68;;;14.90;99.90;;;;;;7395076;19;20143;-81
2022/05/05 00:42:58;;;;;;;6.60;4.78;;;14.90;99.90;;;;;;7388163;19;20147;-78
2022/05/05 00:45:24;;;;;;;5.90;4.70;;;14.80;99.90;;;;;;7387097;19;20593;-79
2022/05/05 00:47:50;;;;;;;5.97;4.47;;;14.70;99.90;;;;;;7389047;19;20190;-81
2022/05/05 00:50:18;;;;;;;4.82;4.32;;;14.80;99.90;;;;;;7387611;19;20138;-82
2022/05/05 00:52:44;;;;;;;5.05;4.55;;;14.80;99.90;;;;;;7387688;19;20152;-79
2022/05/05 00:55:10;;;;;;;5.18;4.68;;;14.70;99.90;;;;;;7390007;19;20712;-78
2022/05/05 00:57:37;;;;;;;5.78;5.20;;;14.80;99.90;;;;;;7386591;19;20508;-81
2022/05/05 01:00:03;;;;;;;6.55;4.93;;;14.70;99.90;;;;;;7392646;19;20510;-81
2022/05/05 01:02:32;;;;;;;5.78;4.78;;;14.70;99.90;;;;;;7387869;19;20143;-82
2022/05/05 01:04:58;;;;;;;5.95;4.65;;;14.60;99.90;;;;;;7386331;19;20591;-78
2022/05/05 01:07:25;;;;;;;7.20;5.10;;;14.60;99.90;;;;;;7389418;19;20138;-82
2022/05/05 01:09:51;;;;;;;5.72;4.93;;;14.60;99.90;;;;;;7385930;19;20122;-78
2022/05/05 01:12:17;;;;;;;6.15;4.88;;;14.60;99.90;;;;;;7388227;19;20599;-82
2022/05/05 01:14:44;;;;;;;5.93;4.78;;;14.70;99.90;;;;;;7386582;19;20174;-81
2022/05/05 01:17:10;;;;;;;4.18;3.78;;;14.80;99.90;;;;;;7391428;19;20170;-80
2022/05/05 01:19:36;;;;;;;4.88;4.38;;;14.90;99.90;;;;;;7389707;19;20137;-79
2022/05/05 01:22:03;;;;;;;5.35;3.78;;;14.90;99.90;;;;;;7390620;19;20658;-80
2022/05/05 01:29:59;;;;;;;3.85;3.55;;;14.80;99.90;;;;;;7384479;19;20167;-82
2022/05/05 01:32:34;;;;;;;4.07;3.67;;;14.60;99.90;;;;;;7389210;19;20131;-80
2022/05/05 01:35:00;;;;;;;4.90;3.58;;;14.60;99.90;;;;;;7386400;19;20148;-79
2022/05/05 01:37:27;;;;;;;4.40;4.00;;;14.80;99.90;;;;;;7385009;19;20143;-82
2022/05/05 01:39:53;;;;;;;3.86;3.40;;;15.00;99.90;;;;;;7244899;19;2795023;-81
2022/05/05 01:42:19;;;;;;;4.47;3.17;;;14.80;99.90;;;;;;7389445;19;20153;-79
2022/05/05 01:44:45;;;;;;;4.03;3.63;;;14.60;99.90;;;;;;7388905;19;20158;-80
2022/05/05 01:47:11;;;;;;;4.00;3.45;;;14.60;99.90;;;;;;7388506;19;20178;-81
2022/05/05 01:49:36;;;;;;;4.75;4.18;;;14.80;99.90;;;;;;7385718;19;20606;-83
2022/05/05 01:52:07;;;;;;;4.30;3.65;;;14.70;99.90;;;;;;7388365;19;20849;-83
2022/05/05 01:54:33;;;;;;;3.63;3.33;;;14.40;99.90;;;;;;7389433;19;20130;-83
2022/05/05 01:56:59;;;;;;;5.47;3.95;;;14.50;99.90;;;;;;7387725;19;20604;-81
2022/05/05 01:59:24;;;;;;;4.80;3.55;;;14.60;99.90;;;;;;7388536;19;20629;-82
2022/05/05 02:01:50;;;;;;;4.70;4.15;;;14.60;99.90;;;;;;7401158;19;20146;-79
2022/05/05 02:04:16;;;;;;;4.15;3.75;;;14.70;99.90;;;;;;7386845;19;20146;-80
2022/05/05 02:06:42;;;;;;;3.53;3.22;;;14.60;99.90;;;;;;7389015;19;20134;-81
2022/05/05 02:09:07;;;;;;;3.80;3.42;;;14.50;99.90;;;;;;7385610;19;20141;-82
2022/05/05 02:11:33;;;;;;;3.80;3.50;;;14.30;99.90;;;;;;7387602;19;20594;-81
2022/05/05 02:13:59;;;;;;;5.00;3.97;;;14.40;99.90;;;;;;7387259;19;20147;-81
2022/05/05 02:16:25;;;;;;;5.43;3.65;;;14.60;99.90;;;;;;7387047;19;20479;-80
2022/05/05 02:18:50;;;;;;;4.72;3.65;;;14.70;99.90;;;;;;7385335;19;20586;-81
2022/05/05 02:21:16;;;;;;;5.85;3.63;;;14.80;99.90;;;;;;7389224;19;20594;-78
2022/05/05 02:23:42;;;;;;;6.75;3.88;;;14.70;99.90;;;;;;7389682;19;20602;-82
2022/05/05 02:26:08;;;;;;;4.80;4.20;;;14.70;99.90;;;;;;7386764;19;20151;-79
2022/05/05 02:28:34;;;;;;;4.05;3.65;;;14.70;99.90;;;;;;7384916;19;20174;-79
2022/05/05 02:31:00;;;;;;;4.13;3.70;;;14.50;99.90;;;;;;7386757;19;20236;-82
2022/05/05 02:33:25;;;;;;;4.10;3.63;;;14.50;99.90;;;;;;7385785;19;20139;-81
2022/05/05 02:38:42;;;;;;;4.75;3.60;;;14.50;99.90;;;;;;7386516;19;20194;-78
2022/05/05 02:38:47;;;;;;;4.57;4.07;;;14.60;99.90;;;;;;7386082;19;20126;-81
2022/05/05 02:41:13;;;;;;;5.70;3.88;;;14.60;99.90;;;;;;7386342;19;20646;-79
2022/05/05 02:43:39;;;;;;;5.35;4.47;;;14.50;99.90;;;;;;7391893;19;20190;-80
2022/05/05 02:46:05;;;;;;;4.50;4.10;;;14.40;99.90;;;;;;7387772;19;20814;-79
2022/05/05 02:48:31;;;;;;;5.13;4.63;;;14.40;99.90;;;;;;7385123;19;20135;-80
2022/05/05 02:50:57;;;;;;;6.25;4.30;;;14.50;99.90;;;;;;7385115;19;20146;-78
2022/05/05 02:56:07;;;;;;;5.00;4.50;;;14.20;99.90;;;;;;7386228;19;20182;-81
2022/05/05 02:58:32;;;;;;;5.15;4.20;;;14.00;99.90;;;;;;7387137;19;20143;-81
2022/05/05 03:00:58;;;;;;;5.40;4.70;;;14.30;99.90;;;;;;7385414;19;20140;-80
2022/05/05 03:03:24;;;;;;;5.00;4.50;;;14.10;99.90;;;;;;7387034;19;20586;-82
2022/05/05 03:05:50;;;;;;;5.03;4.25;;;13.80;99.90;;;;;;7394108;19;20162;-80
2022/05/05 03:08:16;;;;;;;4.93;4.00;;;13.60;99.90;;;;;;7388259;19;20146;-81
2022/05/05 03:10:41;;;;;;;5.13;4.30;;;13.50;99.90;;;;;;7385090;19;20137;-79
2022/05/05 03:13:07;;;;;;;4.90;3.85;;;13.10;99.90;;;;;;7386583;19;20147;-82
2022/05/05 03:15:33;;;;;;;5.00;4.05;;;13.00;99.90;;;;;;7394991;19;20126;-82
2022/05/05 03:17:59;;;;;;;4.47;4.07;;;12.90;99.90;;;;;;7391457;19;20147;-83
2022/05/05 03:20:24;;;;;;;5.85;4.40;;;12.80;99.90;;;;;;7392622;19;20131;-81
2022/05/05 03:22:50;;;;;;;5.13;4.63;;;12.80;99.90;;;;;;7392511;19;20135;-80
2022/05/05 03:25:16;;;;;;;5.75;4.53;;;12.80;99.90;;;;;;7392914;19;20144;-82
2022/05/05 03:27:42;;;;;;;5.47;4.20;;;12.70;99.90;;;;;;7395084;19;20142;-80
2022/05/05 03:30:08;;;;;;;5.15;4.20;;;12.80;99.90;;;;;;7397040;19;20584;-83
2022/05/05 03:32:34;;;;;;;6.32;4.47;;;13.00;99.90;;;;;;7391785;19;20681;-82
2022/05/05 03:35:00;;;;;;;6.32;4.43;;;13.00;99.90;;;;;;7393599;19;20119;-80
2022/05/05 03:37:30;;;;;;;6.30;4.40;;;13.10;99.90;;;;;;7391159;19;20135;-82
2022/05/05 03:39:57;;;;;;;5.78;4.38;;;13.40;99.90;;;;;;7392966;19;20138;-81
2022/05/05 03:42:25;;;;;;;5.15;4.55;;;13.30;99.90;;;;;;7391878;19;20139;-78
2022/05/05 03:44:51;;;;;;;5.97;5.35;;;13.70;99.90;;;;;;7390695;19;20119;-82
2022/05/05 03:47:17;;;;;;;9.82;6.85;;;14.00;99.90;;;;;;7393558;19;20556;-81
2022/05/05 03:49:43;;;;;;;10.43;7.60;;;14.20;99.90;;;;;;7397690;19;20168;-80
2022/05/05 03:52:08;;;;;;;9.00;7.25;;;14.30;99.90;;;;;;7392008;19;20174;-80
2022/05/05 03:54:34;;;;;;;11.02;7.22;;;14.30;99.90;;;;;;7392400;19;20127;-82
2022/05/05 03:57:00;;;;;;;10.23;7.25;;;14.30;99.90;;;;;;7389882;19;20126;-81
2022/05/05 03:59:26;;;;;;;11.48;7.95;;;14.30;99.90;;;;;;7390802;19;20542;-81
2022/05/05 04:01:52;;;;;;;9.35;7.45;;;14.30;99.90;;;;;;7391592;19;20135;-79
2022/05/05 04:04:18;;;;;;;10.02;7.63;;;14.30;99.90;;;;;;7391263;19;20135;-81
2022/05/05 04:06:44;;;;;;;10.20;7.50;;;14.40;99.90;;;;;;7394497;19;20138;-80
2022/05/05 04:09:10;;;;;;;11.75;7.72;;;14.30;99.90;;;;;;7391673;19;20131;-82
2022/05/05 04:11:37;;;;;;;8.65;7.25;;;14.30;99.90;;;;;;7389689;19;20860;-83
2022/05/05 04:14:03;;;;;;;10.55;7.43;;;14.30;99.90;;;;;;7390715;19;20542;-80
2022/05/05 04:16:33;;;;;;;9.13;7.43;;;14.30;99.90;;;;;;7391280;19;20548;-80
2022/05/05 04:19:01;;;;;;;10.25;8.07;;;14.20;99.90;;;;;;7389816;19;20151;-79
2022/05/05 04:21:27;;;;;;;9.37;7.20;;;14.30;99.90;;;;;;7390546;19;20477;-82
2022/05/05 04:23:53;;;;;;;9.95;7.55;;;14.30;99.90;;;;;;7390954;19;20137;-80
2022/05/05 04:26:19;;;;;;;8.80;7.15;;;14.30;99.90;;;;;;7388340;19;20606;-83
2022/05/05 04:28:48;;;;;;;9.65;6.90;;;14.30;99.90;;;;;;7396082;19;20768;-81
2022/05/05 04:31:17;;;;;;;8.33;6.80;;;14.40;99.90;;;;;;7391205;19;20131;-79
2022/05/05 04:33:43;;;;;;;8.60;7.13;;;14.40;99.90;;;;;;7390463;19;20155;-78
2022/05/05 04:36:11;;;;;;;9.55;7.55;;;14.40;99.90;;;;;;7388769;19;20587;-81
2022/05/05 04:38:37;;;;;;;8.20;7.07;;;14.40;99.90;;;;;;7389277;19;20143;-79
2022/05/05 04:41:04;;;;;;;12.70;7.90;;;14.40;99.90;;;;;;7390135;19;20201;-81
2022/05/05 04:43:30;;;;;;;9.40;7.57;;;14.40;99.90;;;;;;7389183;19;20669;-83
2022/05/05 04:45:56;;;;;;;9.25;7.05;;;14.50;99.90;;;;;;7391036;19;20272;-80
2022/05/05 04:48:22;;;;;;;8.45;6.78;;;14.30;99.90;;;;;;7396285;19;20247;-82
2022/05/05 04:50:50;;;;;;;11.07;7.13;;;14.40;99.90;;;;;;7388924;19;20602;-83
2022/05/05 04:53:16;;;;;;;9.90;7.77;;;14.40;99.90;;;;;;7390054;19;20170;-83
2022/05/05 04:55:42;;;;;;;9.52;7.70;;;14.50;99.90;;;;;;7389564;19;20614;-82
2022/05/05 04:58:08;;;;;;;12.60;8.23;;;14.30;99.90;;;;;;7390294;19;20134;-84
2022/05/05 05:00:35;;;;;;;10.07;7.82;;;14.30;99.90;;;;;;7392222;19;20134;-82
2022/05/05 05:03:01;;;;;;;10.27;8.30;;;14.30;99.90;;;;;;7389541;19;20230;-83
2022/05/05 05:05:27;;;;;;;9.23;7.73;;;14.30;99.90;;;;;;7390878;19;20130;-83
2022/05/05 05:07:55;;;;;;;10.50;8.30;;;14.40;99.90;;;;;;7392653;19;20138;-85
2022/05/05 05:10:20;;;;;;;8.98;7.53;;;14.30;99.90;;;;;;7402480;19;20143;-85
2022/05/05 05:12:47;;;;;;;9.50;7.45;;;14.20;99.90;;;;;;7389755;19;20154;-87
2022/05/05 05:15:13;;;;;;;9.60;7.68;;;14.10;99.90;;;;;;7392222;19;20651;-86
2022/05/05 05:17:39;;;;;;;13.55;7.78;;;14.10;99.90;;;;;;7391507;19;20153;-82
2022/05/05 05:20:05;;;;;;;8.23;6.82;;;14.20;99.90;;;;;;7411638;19;20143;-86
2022/05/05 05:22:31;;;;;;;9.45;7.68;;;14.30;99.90;;;;;;7390491;19;20140;-83
2022/05/05 05:24:57;;;;;;;8.82;7.35;;;14.40;99.90;;;;;;7396314;19;20506;-85
2022/05/05 05:27:25;;;;;;;8.85;7.35;;;14.40;99.90;;;;;;7391596;19;20509;-86
2022/05/05 05:29:51;;;;;;;9.35;7.18;;;14.40;99.90;;;;;;7394608;19;20176;-82
2022/05/05 05:32:29;;;;;;;7.68;6.85;;;14.40;99.90;;;;;;7406145;19;20142;-82
2022/05/05 05:34:55;;;;;;;10.23;7.47;;;14.40;99.90;;;;;;7389923;19;20166;-85
2022/05/05 05:37:20;;;;;;;8.95;7.57;;;14.60;99.90;;;;;;7388442;19;20175;-81
2022/05/05 05:39:46;;;;;;;10.25;6.80;;;14.60;99.90;;;;;;7392991;19;20143;-82
2022/05/05 05:42:12;;;;;;;7.57;6.78;;;14.70;99.90;;;;;;7388396;19;20165;-82
2022/05/05 05:44:38;;;;;;;12.15;7.40;;;14.70;99.90;;;;;;7389696;19;20127;-81
2022/05/05 05:47:04;;;;;;;8.75;7.32;;;14.70;99.90;;;;;;7394381;19;20142;-87
2022/05/05 05:49:29;;;;;;;9.18;7.18;;;14.80;99.90;;;;;;7396598;19;20134;-88
2022/05/05 05:51:55;;;;;;;10.98;7.70;;;14.80;99.90;;;;;;7394393;19;20135;-85
2022/05/05 05:54:21;;;;;;;9.95;8.15;;;14.70;99.90;;;;;;7403871;19;20145;-81
2022/05/05 05:56:47;;;;;;;9.30;7.90;;;14.70;99.90;;;;;;7396844;19;20196;-86
2022/05/05 05:59:13;;;;;;;11.00;7.97;;;14.60;99.90;;;;;;7390682;19;20131;-86
2022/05/05 06:04:23;;;;;;;9.68;8.13;;;14.80;99.90;;;;;;7396311;19;20131;-84
2022/05/05 06:06:48;;;;;;;9.80;7.70;;;14.70;99.90;;;;;;7395605;19;20146;-81
2022/05/05 06:09:15;;;;;;;11.52;8.27;;;14.80;99.90;;;;;;7390670;19;20615;-80
2022/05/05 06:11:41;;;;;;;10.75;7.60;;;14.80;99.90;;;;;;7389709;19;20557;-79
2022/05/05 06:14:07;;;;;;;9.85;8.05;;;14.80;99.90;;;;;;7388749;19;20134;-81
2022/05/05 06:16:33;;;;;;;12.65;8.88;;;14.70;99.90;;;;;;7386181;19;20158;-82
2022/05/05 06:18:58;;;;;;;9.68;8.20;;;14.80;99.90;;;;;;7393331;19;20131;-79
2022/05/05 06:21:24;;;;;;;11.10;7.95;;;14.90;99.90;;;;;;7390470;19;20151;-79
2022/05/05 06:23:50;;;;;;;12.18;8.13;;;14.90;99.90;;;;;;7388358;19;20156;-83
2022/05/05 06:26:16;;;;;;;12.50;7.55;;;14.90;99.90;;;;;;7387818;19;20172;-79
2022/05/05 06:28:42;;;;;;;11.60;8.30;;;14.80;99.90;;;;;;7388676;19;20146;-84
2022/05/05 06:31:08;;;;;;;12.25;8.10;;;14.90;99.90;;;;;;7387938;19;20135;-83
2022/05/05 06:33:34;;;;;;;10.95;7.60;;;15.00;99.90;;;;;;7387255;19;20151;-85
2022/05/05 06:35:59;;;;;;;9.40;7.60;;;14.90;99.90;;;;;;7387002;19;20142;-80
2022/05/05 06:38:26;;;;;;;11.02;8.35;;;15.00;99.90;;;;;;7391320;19;20176;-83
2022/05/05 06:40:52;;;;;;;10.57;7.72;;;15.10;99.90;;;;;;7396359;19;20174;-80
2022/05/05 06:43:18;;;;;;;9.30;7.45;;;15.10;99.90;;;;;;7395912;19;20150;-80
2022/05/05 06:45:44;;;;;;;7.60;6.57;;;15.00;99.90;;;;;;7385415;19;20158;-81
2022/05/05 06:48:10;;;;;;;10.68;7.82;;;15.00;99.90;;;;;;7389162;19;20134;-81
2022/05/05 06:50:36;;;;;;;11.20;6.80;;;15.00;99.90;;;;;;7404570;19;20146;-83
2022/05/05 06:53:02;;;;;;;7.45;6.28;;;15.10;99.90;;;;;;7392269;19;20154;-80
2022/05/05 06:55:28;;;;;;;6.93;5.93;;;14.70;99.90;;;;;;7392766;19;20130;-81
2022/05/05 06:57:54;;;;;;;6.97;5.95;;;14.60;99.90;;;;;;7391314;19;20131;-80
2022/05/05 07:00:19;;;;;;;7.95;6.88;;;14.70;99.90;;;;;;7392159;19;20617;-80
2022/05/05 07:02:47;;;;;;;9.63;7.07;;;14.80;99.90;;;;;;7399857;19;20142;-80
2022/05/05 07:05:28;;;;;;;7.95;6.68;;;15.00;99.90;;;;;;7391894;19;20537;-81
2022/05/05 07:07:54;;;;;;;8.65;5.47;;;15.10;99.90;;;;;;7395344;19;20134;-81
2022/05/05 07:13:06;;;;;;;12.05;9.70;;;15.20;99.90;;;;;;7391989;19;20590;-80
2022/05/05 07:15:32;;;;;;;11.43;7.22;;;15.00;99.90;;;;;;7393027;19;20460;-80
2022/05/05 07:17:59;;;;;;;8.13;7.22;;;15.10;99.90;;;;;;7390907;19;20166;-80
2022/05/05 07:20:25;;;;;;;10.65;6.32;;;15.20;99.90;;;;;;7393009;19;20143;-81
2022/05/05 07:22:53;;;;;;;7.57;6.35;;;15.30;99.90;;;;;;7393260;19;20135;-81
2022/05/05 07:25:19;;;;;;;6.60;5.30;;;15.10;99.90;;;;;;7395202;19;20142;-81
2022/05/05 07:27:45;;;;;;;7.53;5.85;;;15.30;99.90;;;;;;7394773;19;20222;-80
2022/05/05 07:30:12;;;;;;;6.63;5.47;;;15.40;99.90;;;;;;7389017;19;20155;-79
2022/05/05 07:32:40;;;;;;;7.95;6.18;;;15.50;99.90;;;;;;7391054;19;20492;-80
2022/05/05 07:35:06;;;;;;;14.57;6.38;;;15.70;99.90;;;;;;7390807;19;20130;-80
2022/05/05 07:37:32;;;;;;;8.13;6.88;;;15.80;99.90;;;;;;7392193;19;20149;-80
2022/05/05 07:39:58;;;;;;;7.78;6.15;;;15.80;99.90;;;;;;7391037;19;20170;-80
2022/05/05 07:42:24;;;;;;;10.45;6.55;;;15.70;99.90;;;;;;7390698;19;20133;-80
2022/05/05 07:44:50;;;;;;;8.93;6.43;;;15.70;99.90;;;;;;7390490;19;20127;-80
2022/05/05 07:47:15;;;;;;;9.32;6.30;;;15.70;99.90;;;;;;7389499;19;20224;-79
2022/05/05 07:49:41;;;;;;;7.03;5.53;;;15.70;99.90;;;;;;7388111;19;20127;-81
2022/05/05 07:52:07;;;;;;;9.93;6.35;;;15.70;99.90;;;;;;7396061;19;20134;-81
2022/05/05 07:54:38;;;;;;;12.93;7.32;;;15.70;99.90;;;;;;7398945;19;20122;-81
2022/05/05 07:57:06;;;;;;;6.30;5.70;;;15.60;99.90;;;;;;7389626;19;20221;-81
2022/05/05 07:59:32;;;;;;;8.32;6.25;;;15.50;99.90;;;;;;7391665;19;20131;-81
2022/05/05 08:01:58;;;;;;;7.43;6.20;;;15.50;99.90;;;;;;7390540;19;20476;-80
2022/05/05 08:04:24;;;;;;;6.75;6.07;;;15.50;99.90;;;;;;7389884;19;20127;-81
2022/05/05 08:06:50;;;;;;;12.63;6.70;;;15.50;99.90;;;;;;7390630;19;20166;-81
2022/05/05 08:09:16;;;;;;;6.95;6.20;;;15.40;99.90;;;;;;7389476;19;20154;-81
2022/05/05 08:11:42;;;;;;;9.68;6.57;;;15.50;99.90;;;;;;7389806;19;20679;-81
2022/05/05 08:14:08;;;;;;;9.48;6.68;;;15.40;99.90;;;;;;7391560;19;20150;-81
2022/05/05 08:16:34;;;;;;;10.98;8.07;;;15.40;99.90;;;;;;7394786;19;20555;-81
2022/05/05 08:19:00;;;;;;;8.02;6.85;;;15.40;99.90;;;;;;7393414;19;20536;-82
2022/05/05 08:21:26;;;;;;;12.43;6.97;;;15.30;99.90;;;;;;7391036;19;20139;-81
2022/05/05 08:28:28;;;;;;;9.73;6.70;;;15.30;99.90;;;;;;7395390;19;20130;-82
2022/05/05 08:29:26;;;;;;;11.70;7.25;;;15.30;99.90;;;;;;7388701;19;20174;-80
2022/05/05 08:31:52;;;;;;;12.00;6.97;;;15.50;99.90;;;;;;7391185;19;20126;-81
2022/05/05 08:34:18;;;;;;;10.52;7.60;;;15.60;99.90;;;;;;7388521;19;20184;-80
2022/05/05 08:36:43;;;;;;;9.70;7.25;;;15.50;99.90;;;;;;7392053;19;20152;-80
2022/05/05 08:39:09;;;;;;;8.32;6.78;;;15.50;99.90;;;;;;7388979;19;20239;-81
2022/05/05 08:41:38;;;;;;;8.85;6.95;;;15.60;99.90;;;;;;7392064;19;20158;-82
2022/05/05 08:44:03;;;;;;;10.13;7.53;;;15.60;99.90;;;;;;7388322;19;20146;-81
2022/05/05 08:46:33;;;;;;;8.30;6.57;;;15.70;99.90;;;;;;7389056;19;20143;-81
2022/05/05 08:49:04;;;;;;;6.53;5.70;;;15.90;99.90;;;;;;7388131;19;20154;-82
2022/05/05 08:51:42;;;;;;;7.80;7.00;;;16.00;99.90;;;;;;7390928;19;20158;-81
2022/05/05 08:54:16;;;;;;;8.85;7.55;;;15.90;99.90;;;;;;7389953;19;20158;-81
2022/05/05 08:56:43;;;;;;;7.65;5.82;;;16.10;99.90;;;;;;7395373;19;20666;-82
2022/05/05 08:59:09;;;;;;;8.40;6.97;;;16.00;99.90;;;;;;7389320;19;20544;-81
2022/05/05 09:01:39;;;;;;;7.88;6.60;;;15.90;99.90;;;;;;7390156;19;20148;-81
2022/05/05 09:04:06;;;;;;;11.07;8.27;;;15.60;99.90;;;;;;7392959;19;20143;-81
2022/05/05 09:06:42;;;;;;;11.65;7.95;;;15.70;99.90;;;;;;7391432;19;20164;-81
2022/05/05 09:09:34;;;;;;;11.27;8.23;;;16.00;99.90;;;;;;7388170;19;20214;-81
2022/05/05 09:12:13;;;;;;;12.48;8.73;;;16.00;99.90;;;;;;7388022;19;20150;-81
2022/05/05 09:14:48;;;;;;;11.50;9.75;;;16.00;99.90;;;;;;7394654;19;20142;-81
2022/05/05 09:17:19;;;;;;;13.98;10.05;;;15.90;99.90;;;;;;7398949;19;20623;-81
2022/05/05 09:19:47;;;;;;;11.07;9.43;;;15.80;99.90;;;;;;7390143;19;20141;-81
2022/05/05 09:22:15;;;;;;;12.32;9.80;;;15.70;99.90;;;;;;7388289;19;20138;-80
2022/05/05 09:24:49;;;;;;;14.35;9.07;;;15.80;99.90;;;;;;7392402;19;20488;-81
2022/05/05 09:27:18;;;;;;;19.40;9.73;;;15.80;99.90;;;;;;7387993;19;20134;-81
2022/05/05 09:30:05;;;;;;;12.65;8.80;;;15.80;99.90;;;;;;7387138;19;20162;-81
2022/05/05 09:32:35;;;;;;;12.40;8.50;;;15.80;99.90;;;;;;7392789;19;20475;-81
2022/05/05 09:35:02;;;;;;;17.20;11.07;;;15.70;99.90;;;;;;7388492;19;20170;-82
2022/05/05 09:37:30;;;;;;;12.88;10.60;;;15.80;99.90;;;;;;7390992;19;20138;-82
2022/05/05 09:40:00;;;;;;;11.77;9.75;;;15.80;99.90;;;;;;7395260;19;20178;-81
2022/05/05 09:42:43;;;;;;;12.60;9.90;;;15.80;99.90;;;;;;7393145;19;20135;-81
2022/05/05 09:45:13;;;;;;;13.35;9.55;;;15.80;99.90;;;;;;7389271;19;20597;-81
2022/05/05 09:47:44;;;;;;;12.00;9.70;;;15.80;99.90;;;;;;7386736;19;20134;-81
2022/05/05 09:50:10;;;;;;;12.02;9.07;;;15.90;99.90;;;;;;7386275;19;20126;-82
2022/05/05 09:58:08;;;;;;;17.67;9.73;;;16.00;99.90;;;;;;7387063;19;20130;-82
2022/05/05 10:00:45;;;;;;;11.05;9.02;;;15.90;99.90;;;;;;7388681;19;20136;-79
2022/05/05 10:06:07;;;;;;;17.25;9.85;;;16.00;99.90;;;;;;7396445;19;20500;-81
2022/05/05 10:08:43;;;;;;;12.57;9.52;;;16.00;99.90;;;;;;7390704;19;20730;-81
2022/05/05 10:11:10;;;;;;;11.57;9.82;;;16.00;99.90;;;;;;7387805;19;20149;-79
2022/05/05 10:13:38;;;;;;;14.05;9.80;;;16.10;99.90;;;;;;7390747;19;20133;-81
2022/05/05 10:16:07;;;;;;;16.25;10.85;;;16.10;99.90;;;;;;7388257;19;20126;-81
2022/05/05 10:18:38;;;;;;;12.48;10.23;;;16.10;99.90;;;;;;7388461;19;20142;-80
2022/05/05 10:21:33;;;;;;;11.55;10.15;;;16.10;99.90;;;;;;7389789;19;20145;-80
2022/05/05 10:24:05;;;;;;;14.52;10.75;;;16.10;99.90;;;;;;7403488;19;20154;-80
2022/05/05 10:26:32;;;;;;;12.88;10.25;;;16.20;99.90;;;;;;7394740;19;20135;-80
2022/05/05 10:28:58;;;;;;;14.15;11.98;;;16.20;99.90;;;;;;7393103;19;20193;-82
2022/05/05 10:31:30;;;;;;;13.77;10.80;;;16.30;99.90;;;;;;7392493;19;20138;-79
2022/05/05 10:34:16;;;;;;;14.30;10.95;;;16.20;99.90;;;;;;7397047;19;20130;-80
2022/05/05 10:37:16;;;;;;;11.55;10.32;;;16.10;99.90;;;;;;7402043;19;20395;-81
2022/05/05 10:39:46;;;;;;;14.55;11.18;;;16.30;99.90;;;;;;7393693;19;20150;-81
2022/05/05 10:42:33;;;;;;;11.80;10.13;;;16.40;99.90;;;;;;7390708;19;20619;-80
2022/05/05 10:45:07;;;;;;;12.23;10.90;;;16.40;99.90;;;;;;7398011;19;20127;-80
2022/05/05 10:48:10;;;;;;;15.48;12.52;;;16.40;99.90;;;;;;7402281;19;20126;-81
2022/05/05 10:50:39;;;;;;;15.13;10.70;;;16.30;99.90;;;;;;7397600;19;20138;-81
2022/05/05 10:53:09;;;;;;;12.13;10.75;;;16.40;99.90;;;;;;7395440;19;20143;-80
2022/05/05 10:55:40;;;;;;;12.48;10.43;;;16.50;99.90;;;;;;7394663;19;20170;-81
2022/05/05 10:58:09;;;;;;;14.07;10.90;;;16.50;99.90;;;;;;7394226;19;20134;-79
2022/05/05 11:00:44;;;;;;;14.60;11.52;;;16.40;99.90;;;;;;7397945;19;20149;-79
2022/05/05 11:03:15;;;;;;;18.40;11.43;;;16.30;99.90;;;;;;7394154;19;20137;-81
2022/05/05 11:05:42;;;;;;;14.13;10.73;;;16.40;99.90;;;;;;7395634;19;20436;-81
2022/05/05 11:08:08;;;;;;;13.85;12.00;;;16.20;99.90;;;;;;7398159;19;20138;-81
2022/05/05 11:13:37;;;;;;;15.80;11.93;;;16.30;99.90;;;;;;7399668;19;20138;-79
2022/05/05 11:22:18;;;;;;;14.98;11.23;;;16.40;99.90;;;;;;7399418;19;20646;-79
2022/05/05 11:24:50;;;;;;;13.60;11.55;;;16.40;99.90;;;;;;7397944;19;20172;-81
2022/05/05 11:27:19;;;;;;;13.00;11.60;;;16.30;99.90;;;;;;7393068;19;20138;-82
2022/05/05 11:29:56;;;;;;;17.48;12.13;;;16.30;99.90;;;;;;7394966;19;20255;-81
2022/05/05 11:32:33;;;;;;;14.27;11.77;;;16.30;99.90;;;;;;7401084;19;20122;-78
2022/05/05 11:35:00;;;;;;;14.45;11.75;;;16.30;99.90;;;;;;7393388;19;20202;-79
2022/05/05 11:37:27;;;;;;;16.38;12.85;;;16.30;99.90;;;;;;7394729;19;20138;-79
2022/05/05 11:39:53;;;;;;;14.07;12.57;;;16.30;99.90;;;;;;7399616;19;20130;-78
2022/05/05 11:42:21;;;;;;;15.00;11.77;;;16.20;99.90;;;;;;7396864;19;20618;-82
2022/05/05 11:44:48;;;;;;;15.60;12.40;;;16.20;99.90;;;;;;7395272;19;20239;-82
2022/05/05 11:47:22;;;;;;;14.85;11.38;;;16.20;99.90;;;;;;7393036;19;20127;-81
2022/05/05 11:49:52;;;;;;;16.90;13.13;;;16.20;99.90;;;;;;7403786;19;20145;-79
2022/05/05 11:52:23;;;;;;;17.23;13.07;;;16.40;99.90;;;;;;7403658;19;20147;-79
2022/05/05 11:54:54;;;;;;;16.70;13.98;;;16.40;99.90;;;;;;7394048;19;20603;-80
2022/05/05 11:57:38;;;;;;;15.50;13.00;;;16.40;99.90;;;;;;7393441;19;20137;-82
2022/05/05 12:02:53;;;;;;;15.98;13.57;;;16.60;99.90;;;;;;7392324;19;20503;-79
2022/05/05 12:05:21;;;;;;;17.73;13.15;;;16.50;99.90;;;;;;7391920;19;20138;-82
2022/05/05 12:07:50;;;;;;;16.13;14.18;;;16.40;99.90;;;;;;7392066;19;20519;-82
2022/05/05 12:10:18;;;;;;;14.85;13.20;;;16.40;99.90;;;;;;7391006;19;20155;-79
2022/05/05 12:12:46;;;;;;;17.63;13.25;;;16.50;99.90;;;;;;7392970;19;20143;-79
2022/05/05 12:15:13;;;;;;;17.95;14.23;;;16.40;99.90;;;;;;7392822;19;20264;-79
2022/05/05 12:17:52;;;;;;;18.65;13.50;;;16.40;99.90;;;;;;7406481;19;20146;-80
2022/05/05 12:20:20;;;;;;;22.02;15.70;;;16.30;99.90;;;;;;7396393;19;20150;-83
2022/05/05 12:23:00;;;;;;;18.60;14.82;;;16.20;99.90;;;;;;7391674;19;20146;-80
2022/05/05 12:25:27;;;;;;;22.75;16.45;;;16.10;99.90;;;;;;7392419;19;20162;-79
2022/05/05 12:27:57;;;;;;;21.65;15.20;;;15.90;99.90;;;;;;7393163;19;20159;-81
2022/05/05 12:30:41;;;;;;;21.98;16.58;;;15.90;99.90;;;;;;7391108;19;20150;-79
2022/05/05 12:33:11;;;;;;;18.27;14.80;;;15.90;99.90;;;;;;7393971;19;20226;-81
2022/05/05 12:35:39;;;;;;;19.48;15.43;;;15.80;99.90;;;;;;7393362;19;20150;-80
2022/05/05 12:38:07;;;;;;;23.52;16.58;;;15.90;99.90;;;;;;7398958;19;20190;-81
2022/05/05 12:40:33;;;;;;;21.15;15.98;;;15.80;99.90;;;;;;7395989;19;20520;-81
2022/05/05 12:43:02;;;;;;;21.25;16.60;;;16.00;99.90;;;;;;7391992;19;20153;-79
2022/05/05 12:45:31;;;;;;;20.23;15.82;;;16.10;99.90;;;;;;7394567;19;20234;-79
2022/05/05 12:48:02;;;;;;;21.15;15.93;;;16.30;99.90;;;;;;7392083;19;20139;-78
2022/05/05 12:50:38;;;;;;;19.85;15.32;;;16.30;99.90;;;;;;7394911;19;20182;-79
2022/05/05 13:01:38;;;;;;;21.15;15.73;;;16.20;99.90;;;;;;7395083;19;20202;-79
2022/05/05 13:04:09;;;;;;;20.58;14.85;;;16.20;99.90;;;;;;7391063;19;20542;-78
2022/05/05 13:06:39;;;;;;;20.08;13.40;;;16.10;99.90;;;;;;7392811;19;20138;-78
2022/05/05 13:09:10;;;;;;;24.45;14.95;;;16.10;99.90;;;;;;7390146;19;20172;-82
2022/05/05 13:11:42;;;;;;;20.63;14.95;;;16.10;99.90;;;;;;7390880;19;20627;-82
2022/05/05 13:14:08;;;;;;;19.20;13.63;;;16.20;99.90;;;;;;7390370;19;20578;-79
2022/05/05 13:16:35;;;;;;;17.25;13.90;;;16.30;99.90;;;;;;7389187;19;20131;-81
2022/05/05 13:19:02;;;;;;;22.10;15.75;;;16.50;99.90;;;;;;7390329;19;20170;-80
2022/05/05 13:21:28;;;;;;;22.45;15.68;;;16.50;99.90;;;;;;7399036;19;20150;-81
2022/05/05 13:23:55;;;;;;;18.13;14.43;;;16.60;99.90;;;;;;7396929;19;20173;-80
2022/05/05 13:26:21;;;;;;;20.95;15.50;;;16.60;99.90;;;;;;7391434;19;20142;-80
2022/05/05 13:28:47;;;;;;;17.52;13.68;;;16.60;99.90;;;;;;7388524;19;20206;-81
2022/05/05 13:31:13;;;;;;;18.90;13.77;;;16.60;99.90;;;;;;7389888;19;20874;-81
2022/05/05 13:33:39;;;;;;;16.90;13.15;;;16.60;99.90;;;;;;7391101;19;20169;-80
2022/05/05 13:36:05;;;;;;;17.20;13.93;;;16.80;99.90;;;;;;7388971;19;20142;-81